createdAt,value
2023-01-04T00:00:00.354Z,100449.59
2023-01-04T00:02:29.349Z,100447.39
2023-01-04T00:04:57.824Z,100449.98
2023-01-04T00:07:26.333Z,100445.34
2023-01-04T00:09:54.715Z,100446.55
2023-01-04T00:12:23.675Z,100450.92
2023-01-04T00:14:51.916Z,100453.89
2023-01-04T00:17:20.241Z,100453.00
2023-01-04T00:19:48.634Z,100450.72
2023-01-04T00:22:16.906Z,100453.16
2023-01-04T00:24:45.634Z,100449.63
2023-01-04T00:27:13.963Z,100446.80
2023-01-04T00:29:42.183Z,100448.73
2023-01-04T00:32:10.481Z,100445.58
2023-01-04T00:34:38.811Z,100448.17
2023-01-04T00:37:07.675Z,100449.83
2023-01-04T00:39:35.927Z,100447.80
2023-01-04T00:42:07.214Z,100446.72
2023-01-04T00:44:35.816Z,100447.38
2023-01-04T00:47:04.897Z,100452.42
2023-01-04T00:49:33.433Z,100459.17
2023-01-04T00:52:02.026Z,100466.63
2023-01-04T00:54:30.484Z,100469.01
2023-01-04T00:56:59.015Z,100464.73
2023-01-04T00:59:27.852Z,100461.79
2023-01-04T01:01:56.308Z,100461.30
2023-01-04T01:04:24.962Z,100458.22
2023-01-04T01:06:53.409Z,100453.45
2023-01-04T01:09:24.893Z,100454.23
2023-01-04T01:11:54.095Z,100452.77
2023-01-04T01:14:25.226Z,100454.94
2023-01-04T01:16:57.703Z,100457.60
2023-01-04T01:19:29.686Z,100456.56
2023-01-04T01:21:58.559Z,100462.21
2023-01-04T01:24:27.656Z,100457.88
2023-01-04T01:26:56.761Z,100458.48
2023-01-04T01:29:25.417Z,100454.91
2023-01-04T01:31:54.508Z,100451.86
2023-01-04T01:34:23.044Z,100451.75
2023-01-04T01:36:51.359Z,100447.45
2023-01-04T01:39:19.871Z,100440.70
2023-01-04T01:41:48.373Z,100435.70
2023-01-04T01:44:45.295Z,100437.21
2023-01-04T01:47:31.139Z,100436.64
2023-01-04T01:50:01.121Z,100434.12
2023-01-04T01:52:38.019Z,100430.87
2023-01-04T01:55:10.676Z,100434.28
2023-01-04T01:57:39.973Z,100429.51
2023-01-04T02:00:12.878Z,100427.52
2023-01-04T02:03:03.885Z,100418.54
2023-01-04T02:05:34.197Z,100418.80
2023-01-04T02:08:03.856Z,100423.58
2023-01-04T02:10:33.155Z,100422.09
2023-01-04T02:13:08.132Z,100420.05
2023-01-04T02:16:19.890Z,100416.64
2023-01-04T02:19:05.891Z,100422.51
2023-01-04T02:22:03.111Z,100420.69
2023-01-04T02:25:00.239Z,100416.72
2023-01-04T02:27:53.393Z,100418.84
2023-01-04T02:30:44.831Z,100423.06
2023-01-04T02:33:28.434Z,100422.76
2023-01-04T02:36:22.543Z,100419.11
2023-01-04T02:39:10.476Z,100422.46
2023-01-04T02:41:41.807Z,100419.02
2023-01-04T02:44:37.685Z,100417.98
2023-01-04T02:47:12.672Z,100414.86
2023-01-04T02:50:04.528Z,100416.25
2023-01-04T02:52:34.074Z,100411.91
2023-01-04T02:55:06.908Z,100409.50
2023-01-04T02:57:55.690Z,100409.34
2023-01-04T03:01:17.050Z,100413.19
2023-01-04T03:04:19.716Z,100416.15
2023-01-04T03:07:11.369Z,100416.98
2023-01-04T03:09:44.682Z,100416.41
2023-01-04T03:12:32.143Z,100409.90
2023-01-04T03:15:18.229Z,100407.04
2023-01-04T03:17:59.910Z,100401.55
2023-01-04T03:20:32.424Z,100398.19
2023-01-04T03:23:26.902Z,100394.65
2023-01-04T03:26:27.296Z,100387.09
2023-01-04T03:29:22.946Z,100376.21
2023-01-04T03:32:36.529Z,100369.38
2023-01-04T03:35:23.716Z,100371.09
2023-01-04T03:38:17.288Z,100364.60
2023-01-04T03:41:13.442Z,100359.02
2023-01-04T03:44:09.108Z,100355.35
2023-01-04T03:47:10.268Z,100353.96
2023-01-04T03:49:57.430Z,100354.35
2023-01-04T03:52:28.530Z,100362.09
2023-01-04T03:54:59.006Z,100360.20
2023-01-04T03:57:27.820Z,100356.02
2023-01-04T04:00:03.107Z,100357.09
2023-01-04T04:02:34.937Z,100349.42
2023-01-04T04:05:22.978Z,100351.52
2023-01-04T04:08:09.947Z,100349.98
2023-01-04T04:10:38.209Z,100353.38
2023-01-04T04:13:06.516Z,100356.45
2023-01-04T04:15:36.775Z,100356.88
2023-01-04T04:18:05.128Z,100358.38
2023-01-04T04:20:33.550Z,100357.91
2023-01-04T04:23:02.009Z,100360.46
2023-01-04T04:25:30.417Z,100356.86
2023-01-04T04:27:58.744Z,100351.52
2023-01-04T04:30:27.015Z,100349.27
2023-01-04T04:32:56.171Z,100349.13
2023-01-04T04:35:24.603Z,100347.41
2023-01-04T04:37:52.900Z,100351.95
2023-01-04T04:40:39.690Z,100354.19
2023-01-04T04:43:09.323Z,100358.70
2023-01-04T04:45:37.655Z,100351.00
2023-01-04T04:48:06.091Z,100351.53
2023-01-04T04:50:34.438Z,100352.05
2023-01-04T04:53:02.779Z,100348.95
2023-01-04T04:55:33.346Z,100345.67
2023-01-04T04:58:01.679Z,100347.65
2023-01-04T05:00:29.998Z,100346.30
2023-01-04T05:02:59.495Z,100344.95
2023-01-04T05:05:28.462Z,100345.50
2023-01-04T05:07:56.736Z,100347.27
2023-01-04T05:10:25.039Z,100343.80
2023-01-04T05:13:02.205Z,100340.15
2023-01-04T05:15:32.926Z,100338.08
2023-01-04T05:18:01.695Z,100337.57
2023-01-04T05:20:30.063Z,100336.00
2023-01-04T05:22:58.482Z,100326.94
2023-01-04T05:25:27.218Z,100322.92
2023-01-04T05:27:56.473Z,100323.09
2023-01-04T05:30:44.021Z,100323.11
2023-01-04T05:33:12.642Z,100319.85
2023-01-04T05:35:41.109Z,100314.14
2023-01-04T05:38:09.418Z,100314.70
2023-01-04T05:40:37.975Z,100314.77
2023-01-04T05:43:06.475Z,100306.44
2023-01-04T05:45:35.567Z,100301.90
2023-01-04T05:48:04.105Z,100300.53
2023-01-04T05:50:32.589Z,100295.14
2023-01-04T05:53:06.912Z,100294.98
2023-01-04T05:55:35.255Z,100290.83
2023-01-04T05:58:04.037Z,100290.14
2023-01-04T06:00:32.457Z,100286.71
2023-01-04T06:03:01.136Z,100284.28
2023-01-04T06:05:29.689Z,100282.90
2023-01-04T06:07:58.068Z,100287.46
2023-01-04T06:10:26.362Z,100286.27
2023-01-04T06:12:54.725Z,100288.94
2023-01-04T06:15:23.216Z,100289.48
2023-01-04T06:17:51.630Z,100288.30
2023-01-04T06:20:20.065Z,100285.71
2023-01-04T06:22:48.567Z,100285.89
2023-01-04T06:25:17.414Z,100280.80
2023-01-04T06:27:45.923Z,100278.02
2023-01-04T06:30:14.418Z,100275.38
2023-01-04T06:32:43.561Z,100275.52
2023-01-04T06:35:12.073Z,100273.77
2023-01-04T06:37:40.805Z,100273.23
2023-01-04T06:40:11.219Z,100270.59
2023-01-04T06:42:45.389Z,100269.52
2023-01-04T06:45:15.590Z,100263.59
2023-01-04T06:47:44.140Z,100263.73
2023-01-04T06:50:14.714Z,100262.49
2023-01-04T06:52:43.319Z,100255.17
2023-01-04T06:55:11.840Z,100250.63
2023-01-04T06:57:42.299Z,100248.36
2023-01-04T07:00:11.383Z,100246.64
2023-01-04T07:02:39.932Z,100241.64
2023-01-04T07:05:28.317Z,100243.05
2023-01-04T07:08:07.350Z,100246.34
2023-01-04T07:10:36.835Z,100247.55
2023-01-04T07:13:05.936Z,100248.75
2023-01-04T07:15:39.220Z,100257.27
2023-01-04T07:18:10.283Z,100255.70
2023-01-04T07:20:39.291Z,100256.86
2023-01-04T07:23:09.335Z,100256.98
2023-01-04T07:25:37.849Z,100259.33
2023-01-04T07:28:06.515Z,100257.52
2023-01-04T07:30:34.912Z,100251.55
2023-01-04T07:33:03.507Z,100252.69
2023-01-04T07:35:31.848Z,100249.48
2023-01-04T07:38:00.337Z,100252.23
2023-01-04T07:40:28.926Z,100252.52
2023-01-04T07:42:58.946Z,100240.76
2023-01-04T07:45:27.885Z,100239.78
2023-01-04T07:47:57.824Z,100238.61
2023-01-04T07:50:26.296Z,100235.37
2023-01-04T07:52:55.034Z,100237.53
2023-01-04T07:55:23.416Z,100236.57
2023-01-04T07:57:53.413Z,100230.52
2023-01-04T08:00:21.881Z,100221.33
2023-01-04T08:02:50.482Z,100221.20
2023-01-04T08:05:25.028Z,100217.27
2023-01-04T08:07:53.448Z,100218.37
2023-01-04T08:10:22.012Z,100215.64
2023-01-04T08:12:50.415Z,100218.50
2023-01-04T08:15:19.677Z,100216.45
2023-01-04T08:17:48.047Z,100214.23
2023-01-04T08:20:16.590Z,100212.17
2023-01-04T08:22:45.015Z,100209.05
2023-01-04T08:25:14.149Z,100206.23
2023-01-04T08:27:42.547Z,100206.05
2023-01-04T08:30:11.292Z,100212.11
2023-01-04T08:32:40.732Z,100211.09
2023-01-04T08:35:09.233Z,100208.79
2023-01-04T08:37:37.639Z,100207.58
2023-01-04T08:40:06.670Z,100206.13
2023-01-04T08:42:35.081Z,100201.01
2023-01-04T08:45:03.885Z,100200.91
2023-01-04T08:47:33.098Z,100197.36
2023-01-04T08:50:08.244Z,100198.14
2023-01-04T08:52:39.047Z,100198.04
2023-01-04T08:55:12.696Z,100200.38
2023-01-04T08:57:42.431Z,100199.49
2023-01-04T09:00:11.521Z,100190.09
2023-01-04T09:02:40.186Z,100187.97
2023-01-04T09:05:09.040Z,100180.19
2023-01-04T09:07:37.552Z,100177.46
2023-01-04T09:10:06.327Z,100176.23
2023-01-04T09:12:34.715Z,100176.90
2023-01-04T09:15:03.535Z,100173.46
2023-01-04T09:17:31.887Z,100172.48
2023-01-04T09:20:00.627Z,100168.38
2023-01-04T09:22:31.550Z,100158.98
2023-01-04T09:25:00.043Z,100160.51
2023-01-04T09:27:28.547Z,100152.34
2023-01-04T09:29:56.963Z,100140.64
2023-01-04T09:32:25.896Z,100137.71
2023-01-04T09:34:56.371Z,100133.84
2023-01-04T09:37:24.769Z,100128.59
2023-01-04T09:39:53.090Z,100120.55
2023-01-04T09:42:35.046Z,100113.50
2023-01-04T09:45:27.086Z,100111.42
2023-01-04T09:48:10.537Z,100102.52
2023-01-04T09:51:03.917Z,100097.58
2023-01-04T09:53:44.528Z,100094.14
2023-01-04T09:56:31.578Z,100092.23
2023-01-04T09:59:09.417Z,100085.02
2023-01-04T10:01:50.105Z,100076.63
2023-01-04T10:04:44.764Z,100073.33
2023-01-04T10:07:29.089Z,100067.75
2023-01-04T10:09:58.675Z,100056.31
2023-01-04T10:12:42.241Z,100043.95
2023-01-04T10:15:21.498Z,100034.09
2023-01-04T10:20:16.347Z,100022.77
2023-01-04T10:23:57.317Z,100012.97
2023-01-04T10:26:50.317Z,100003.89
2023-01-04T10:29:37.166Z,99997.95
2023-01-04T10:32:13.214Z,99995.86
2023-01-04T10:34:47.827Z,99991.94
2023-01-04T10:37:21.129Z,99985.77
2023-01-04T10:39:55.777Z,99978.53
2023-01-04T10:42:26.994Z,99970.64
2023-01-04T10:45:23.215Z,99964.98
2023-01-04T10:48:05.536Z,99956.22
2023-01-04T10:50:42.479Z,99950.35
2023-01-04T10:53:37.542Z,99943.95
2023-01-04T10:56:25.088Z,99937.53
2023-01-04T10:59:18.444Z,99929.65
2023-01-04T11:02:06.996Z,99925.85
2023-01-04T11:04:42.720Z,99920.53
2023-01-04T11:07:20.458Z,99916.89
2023-01-04T11:09:57.887Z,99910.98
2023-01-04T11:12:26.618Z,99908.52
2023-01-04T11:14:55.015Z,99904.80
2023-01-04T11:17:25.102Z,99898.28
2023-01-04T11:19:54.553Z,99890.14
2023-01-04T11:22:36.805Z,99887.39
2023-01-04T11:25:35.544Z,99877.45
2023-01-04T11:28:23.112Z,99869.65
2023-01-04T11:31:09.871Z,99860.88
2023-01-04T11:33:56.458Z,99845.14
2023-01-04T11:36:44.130Z,99844.48
2023-01-04T11:39:24.826Z,99839.03
2023-01-04T11:42:02.618Z,99836.64
2023-01-04T11:44:34.055Z,99830.52
2023-01-04T11:47:20.600Z,99826.40
2023-01-04T11:49:51.721Z,99817.23
2023-01-04T11:52:37.561Z,99807.39
2023-01-04T11:55:26.304Z,99799.85
2023-01-04T11:58:11.273Z,99793.07
2023-01-04T12:00:54.347Z,99792.73
2023-01-04T12:03:34.512Z,99789.84
2023-01-04T12:06:18.534Z,99786.67
2023-01-04T12:08:48.061Z,99785.88
2023-01-04T12:11:28.226Z,99788.48
2023-01-04T12:14:00.800Z,99778.88
2023-01-04T12:16:56.975Z,99775.83
2023-01-04T12:19:25.849Z,99772.71
2023-01-04T12:21:58.430Z,99772.54
2023-01-04T12:24:30.092Z,99767.83
2023-01-04T12:26:59.694Z,99762.17
2023-01-04T12:29:42.965Z,99756.36
2023-01-04T12:32:11.190Z,99752.05
2023-01-04T12:34:45.957Z,99748.42
2023-01-04T12:37:51.269Z,99736.97
2023-01-04T12:40:47.960Z,99734.59
2023-01-04T12:43:16.260Z,99731.52
2023-01-04T12:45:47.012Z,99726.79
2023-01-04T12:48:45.879Z,99720.69
2023-01-04T12:51:37.358Z,99713.86
2023-01-04T12:54:23.267Z,99705.52
2023-01-04T12:57:09.726Z,99699.20
2023-01-04T12:59:53.270Z,99691.64
2023-01-04T13:02:28.946Z,99681.94
2023-01-04T13:05:53.161Z,99680.30
2023-01-04T13:07:58.797Z,99671.59
2023-01-04T13:10:36.633Z,99662.58
2023-01-04T13:13:29.635Z,99655.95
2023-01-04T13:16:07.149Z,99647.48
2023-01-04T13:18:43.308Z,99642.30
2023-01-04T13:21:28.287Z,99639.89
2023-01-04T13:23:59.985Z,99633.67
2023-01-04T13:26:40.548Z,99633.63
2023-01-04T13:29:15.867Z,99633.96
2023-01-04T13:31:53.289Z,99627.54
2023-01-04T13:34:21.710Z,99619.86
2023-01-04T13:37:27.529Z,99607.17
2023-01-04T13:40:20.845Z,99602.70
2023-01-04T13:43:28.956Z,99595.88
2023-01-04T13:46:19.296Z,99590.84
2023-01-04T13:48:50.927Z,99589.48
2023-01-04T13:51:36.170Z,99584.02
2023-01-04T13:54:17.044Z,99578.68
2023-01-04T13:56:51.416Z,99576.56
2023-01-04T13:59:23.329Z,99574.79
2023-01-04T14:01:53.139Z,99571.52
2023-01-04T14:04:30.612Z,99568.82
2023-01-04T14:07:01.634Z,99563.31
2023-01-04T14:09:42.504Z,99561.65
2023-01-04T14:12:17.894Z,99553.20
2023-01-04T14:15:01.161Z,99548.46
2023-01-04T14:17:36.299Z,99544.32
2023-01-04T14:20:26.696Z,99542.10
2023-01-04T14:22:57.055Z,99540.78
2023-01-04T14:25:42.009Z,99531.70
2023-01-04T14:28:19.728Z,99527.78
2023-01-04T14:30:52.664Z,99519.14
2023-01-04T14:33:26.304Z,99512.48
2023-01-04T14:36:06.452Z,99505.48
2023-01-04T14:38:50.891Z,99498.34
2023-01-04T14:41:31.405Z,99495.09
2023-01-04T14:43:59.766Z,99495.61
2023-01-04T14:46:30.264Z,99490.57
2023-01-04T14:48:59.176Z,99489.20
2023-01-04T14:51:42.208Z,99482.34
2023-01-04T14:54:13.751Z,99474.62
2023-01-04T14:56:43.802Z,99476.00
2023-01-04T14:59:12.637Z,99472.09
2023-01-04T15:01:41.001Z,99469.89
2023-01-04T15:04:09.475Z,99466.33
2023-01-04T15:06:47.755Z,99461.67
2023-01-04T15:09:25.636Z,99453.11
2023-01-04T15:11:55.439Z,99441.25
2023-01-04T15:14:24.176Z,99439.84
2023-01-04T15:16:52.537Z,99439.45
2023-01-04T15:19:21.390Z,99438.47
2023-01-04T15:21:53.232Z,99437.77
2023-01-04T15:24:21.714Z,99430.63
2023-01-04T15:26:50.122Z,99426.63
2023-01-04T15:29:18.497Z,99427.41
2023-01-04T15:31:46.938Z,99424.20
2023-01-04T15:34:15.418Z,99417.13
2023-01-04T15:36:44.240Z,99407.95
2023-01-04T15:39:15.755Z,99402.65
2023-01-04T15:42:02.829Z,99403.88
2023-01-04T15:44:31.348Z,99400.93
2023-01-04T15:47:00.093Z,99396.23
2023-01-04T15:49:31.810Z,99389.33
2023-01-04T15:52:00.166Z,99374.06
2023-01-04T15:54:28.898Z,99369.54
2023-01-04T15:56:57.624Z,99370.51
2023-01-04T15:59:26.595Z,99365.68
2023-01-04T16:01:55.062Z,99359.30
2023-01-04T16:04:23.696Z,99358.99
2023-01-04T16:06:52.350Z,99358.10
2023-01-04T16:09:20.762Z,99353.22
2023-01-04T16:12:07.969Z,99349.77
2023-01-04T16:14:36.459Z,99341.14
2023-01-04T16:17:04.838Z,99339.58
2023-01-04T16:19:34.316Z,99336.27
2023-01-04T16:22:02.705Z,99331.21
2023-01-04T16:25:09.183Z,99328.01
2023-01-04T16:27:19.652Z,99322.02
2023-01-04T16:29:51.035Z,99321.11
2023-01-04T16:32:20.271Z,99318.17
2023-01-04T16:34:50.643Z,99316.12
2023-01-04T16:37:19.312Z,99312.60
2023-01-04T16:40:07.757Z,99299.73
2023-01-04T16:42:40.312Z,99299.83
2023-01-04T16:45:09.589Z,99302.13
2023-01-04T16:47:41.159Z,99303.76
2023-01-04T16:50:13.040Z,99295.61
2023-01-04T16:52:41.711Z,99296.41
2023-01-04T16:55:11.063Z,99290.89
2023-01-04T16:57:39.414Z,99284.77
2023-01-04T17:00:08.574Z,99277.84
2023-01-04T17:02:37.114Z,99275.48
2023-01-04T17:05:05.842Z,99268.45
2023-01-04T17:07:34.660Z,99259.86
2023-01-04T17:10:03.221Z,99250.05
2023-01-04T17:12:48.496Z,99244.30
2023-01-04T17:18:07.093Z,99224.01
2023-01-04T17:20:35.874Z,99216.58
2023-01-04T17:23:04.683Z,99212.34
2023-01-04T17:25:33.119Z,99212.84
2023-01-04T17:28:01.740Z,99211.45
2023-01-04T17:30:39.428Z,99207.41
2023-01-04T17:33:19.467Z,99199.17
2023-01-04T17:35:47.986Z,99195.71
2023-01-04T17:38:17.133Z,99197.05
2023-01-04T17:40:45.429Z,99194.52
2023-01-04T17:43:14.324Z,99191.20
2023-01-04T17:45:43.795Z,99189.33
2023-01-04T17:48:12.249Z,99183.08
2023-01-04T17:50:40.655Z,99170.71
2023-01-04T17:53:11.688Z,99154.89
2023-01-04T17:55:39.982Z,99136.70
2023-01-04T17:58:11.720Z,99111.95
2023-01-04T18:00:41.511Z,99103.22
2023-01-04T18:03:09.973Z,99112.70
2023-01-04T18:05:51.300Z,99125.12
2023-01-04T18:08:21.748Z,99129.15
2023-01-04T18:11:06.917Z,99129.17
2023-01-04T18:13:37.677Z,99121.69
2023-01-04T18:16:23.892Z,99121.55
2023-01-04T18:18:55.066Z,99115.30
2023-01-04T18:21:28.928Z,99108.84
2023-01-04T18:29:38.475Z,99107.67
2023-01-04T18:32:06.970Z,99102.95
2023-01-04T18:34:35.476Z,99102.18
2023-01-04T18:37:06.855Z,99102.29
2023-01-04T18:39:35.239Z,99102.89
2023-01-04T18:42:03.895Z,99105.20
2023-01-04T18:44:34.879Z,99097.96
2023-01-04T18:47:04.068Z,99092.68
2023-01-04T18:49:32.519Z,99085.35
2023-01-04T18:52:01.313Z,99080.98
2023-01-04T18:54:31.786Z,99079.96
2023-01-04T18:57:01.300Z,99074.52
2023-01-04T18:59:30.496Z,99068.36
2023-01-04T19:02:01.600Z,99067.39
2023-01-04T19:04:35.562Z,99062.27
2023-01-04T19:07:04.069Z,99057.60
2023-01-04T19:09:32.569Z,99052.30
2023-01-04T19:12:02.145Z,99050.72
2023-01-04T19:14:45.001Z,99044.33
2023-01-04T19:17:13.710Z,99042.91
2023-01-04T19:19:43.349Z,99040.95
2023-01-04T19:22:13.066Z,99042.04
2023-01-04T19:24:42.438Z,99041.84
2023-01-04T19:27:12.686Z,99039.95
2023-01-04T19:29:44.438Z,99036.30
2023-01-04T19:32:14.128Z,99034.64
2023-01-04T19:34:43.248Z,99039.93
2023-01-04T19:37:13.291Z,99040.46
2023-01-04T19:39:42.346Z,99039.84
2023-01-04T19:42:10.736Z,99041.13
2023-01-04T19:44:39.662Z,99034.63
2023-01-04T19:47:14.506Z,99035.58
2023-01-04T19:49:52.760Z,99027.63
2023-01-04T19:52:21.148Z,99023.63
2023-01-04T19:54:50.814Z,99027.49
2023-01-04T19:57:19.127Z,99025.55
2023-01-04T19:59:47.698Z,99021.76
2023-01-04T20:02:16.561Z,99016.05
2023-01-04T20:04:46.413Z,99013.53
2023-01-04T20:07:15.174Z,99009.38
2023-01-04T20:09:46.045Z,99001.14
2023-01-04T20:12:16.660Z,98996.97
2023-01-04T20:14:47.063Z,98989.30
2023-01-04T20:17:15.634Z,98987.25
2023-01-04T20:19:44.240Z,98988.67
2023-01-04T20:22:13.299Z,98987.77
2023-01-04T20:24:42.163Z,98982.37
2023-01-04T20:27:10.691Z,98980.60
2023-01-04T20:29:39.631Z,98981.01
2023-01-04T20:32:08.053Z,98977.84
2023-01-04T20:34:36.550Z,98969.16
2023-01-04T20:37:04.912Z,98970.19
2023-01-04T20:39:33.903Z,98969.85
2023-01-04T20:42:21.108Z,98966.16
2023-01-04T20:44:49.560Z,98962.90
2023-01-04T20:47:17.917Z,98954.71
2023-01-04T20:49:49.202Z,98947.86
2023-01-04T20:56:37.696Z,98939.35
2023-01-04T20:59:07.098Z,98936.75
2023-01-04T21:01:36.768Z,98934.84
2023-01-04T21:04:05.777Z,98941.91
2023-01-04T21:06:34.914Z,98938.20
2023-01-04T21:09:03.288Z,98931.80
2023-01-04T21:11:31.630Z,98922.52
2023-01-04T21:14:01.795Z,98917.77
2023-01-04T21:16:30.201Z,98919.43
2023-01-04T21:18:58.978Z,98916.39
2023-01-04T21:21:27.306Z,98913.90
2023-01-04T21:23:58.115Z,98913.42
2023-01-04T21:26:26.622Z,98915.18
2023-01-04T21:28:54.953Z,98917.30
2023-01-04T21:31:25.075Z,98922.93
2023-01-04T21:33:54.447Z,98917.38
2023-01-04T21:36:27.331Z,98913.48
2023-01-04T21:38:58.520Z,98909.44
2023-01-04T21:41:27.191Z,98902.59
2023-01-04T21:43:57.736Z,98892.69
2023-01-04T21:46:27.323Z,98893.98
2023-01-04T21:48:59.243Z,98889.52
2023-01-04T21:51:29.113Z,98882.23
2023-01-04T21:53:57.763Z,98879.01
2023-01-04T21:56:26.136Z,98874.27
2023-01-04T21:58:54.496Z,98863.06
2023-01-04T22:01:32.678Z,98856.89
2023-01-04T22:04:05.469Z,98847.67
2023-01-04T22:06:37.380Z,98846.84
2023-01-04T22:09:07.198Z,98847.98
2023-01-04T22:11:35.719Z,98846.34
2023-01-04T22:14:04.927Z,98836.84
2023-01-04T22:16:33.368Z,98835.17
2023-01-04T22:19:01.794Z,98833.08
2023-01-04T22:21:30.815Z,98831.22
2023-01-04T22:23:59.603Z,98826.21
2023-01-04T22:26:28.023Z,98817.52
2023-01-04T22:28:56.374Z,98809.17
2023-01-04T22:31:24.813Z,98803.09
2023-01-04T22:33:53.140Z,98794.83
2023-01-04T22:36:23.279Z,98793.65
2023-01-04T22:38:53.428Z,98798.34
2023-01-04T22:41:24.519Z,98799.02
2023-01-04T22:44:10.982Z,98792.45
2023-01-04T22:46:39.517Z,98783.83
2023-01-04T22:49:07.845Z,98786.21
2023-01-04T22:51:36.281Z,98784.77
2023-01-04T22:54:05.864Z,98769.54
2023-01-04T22:56:34.292Z,98764.70
2023-01-04T22:59:03.846Z,98767.81
2023-01-04T23:01:34.394Z,98766.73
2023-01-04T23:04:03.194Z,98763.48
2023-01-04T23:06:32.750Z,98761.30
2023-01-04T23:09:07.933Z,98759.23
2023-01-04T23:11:37.394Z,98755.02
2023-01-04T23:14:08.064Z,98752.95
2023-01-04T23:16:36.578Z,98757.02
2023-01-04T23:19:06.702Z,98755.34
2023-01-04T23:21:35.597Z,98751.85
2023-01-04T23:24:06.215Z,98748.11
2023-01-04T23:26:34.686Z,98745.09
2023-01-04T23:29:03.737Z,98742.05
2023-01-04T23:31:33.474Z,98740.70
2023-01-04T23:34:04.694Z,98739.55
2023-01-04T23:36:36.121Z,98736.55
2023-01-04T23:39:08.599Z,98728.15
2023-01-04T23:41:46.515Z,98720.69
2023-01-04T23:44:27.158Z,98714.52
2023-01-04T23:47:00.651Z,98720.38
2023-01-04T23:49:31.438Z,98715.06
2023-01-04T23:52:01.034Z,98714.48
2023-01-04T23:54:30.041Z,98708.62
2023-01-04T23:56:59.794Z,98706.82
2023-01-04T23:59:28.470Z,98698.86
